KLM0915 EHAM-EGPD
Flight info
| Callsign | KLM0915 |
|---|---|
| Flight time | 1h 20m |
| Altitude | 32000 |
| Route | BERGI L602 SUPUR P1 GODOS DCT ROXAT DCT NATEB DCT TLA DCT GRICE DCT FINDO P600 NAXIL |
| Aircraft | B738/M-SDE2E3FGHIRWXY/LB1 |
Departure
| Time | 2026-05-04 11:31 |
|---|---|
| Airport | Amsterdam Airport Schiphol (EHAM) |
Arrival
| Time | 2026-05-04 12:51 |
|---|---|
| Airport | Aberdeen International Airport (EGPD) |
| Time | Latitude | Longitude | Altitude | Speed | Heading |
|---|---|---|---|---|---|
| 2026-05-04 11:08 | 52.30704 | 4.77342 | 13 ft | 0 kts | 1° |
| 2026-05-04 11:27 | 52.30658 | 4.77280 | 13 ft | 0 kts | 89° |
| 2026-05-04 11:28 | 52.30658 | 4.77283 | 13 ft | 2 kts | 89° |
| 2026-05-04 11:28 | 52.30648 | 4.77359 | 13 ft | 11 kts | 102° |
| 2026-05-04 11:29 | 52.30634 | 4.77458 | 13 ft | 6 kts | 117° |
| 2026-05-04 11:29 | 52.30592 | 4.77522 | 13 ft | 12 kts | 149° |
| 2026-05-04 11:29 | 52.30508 | 4.77596 | 13 ft | 13 kts | 152° |
| 2026-05-04 11:29 | 52.30441 | 4.77634 | 13 ft | 7 kts | 186° |
| 2026-05-04 11:31 | 52.28613 | 4.72960 | 1485 ft | 168 kts | 239° |
| 2026-05-04 11:33 | 52.23616 | 4.61415 | 4804 ft | 267 kts | 249° |
| 2026-05-04 11:33 | 52.23132 | 4.58432 | 5693 ft | 272 kts | 267° |
| 2026-05-04 11:33 | 52.23420 | 4.55409 | 6640 ft | 272 kts | 292° |
| 2026-05-04 11:34 | 52.23921 | 4.53887 | 7207 ft | 269 kts | 306° |
| 2026-05-04 11:34 | 52.25279 | 4.51840 | 8209 ft | 271 kts | 327° |
| 2026-05-04 11:34 | 52.26981 | 4.50441 | 9068 ft | 276 kts | 334° |
| 2026-05-04 11:34 | 52.28695 | 4.49038 | 9922 ft | 279 kts | 330° |
| 2026-05-04 11:35 | 52.30412 | 4.47455 | 10715 ft | 285 kts | 327° |
| 2026-05-04 11:35 | 52.32139 | 4.45742 | 11236 ft | 302 kts | 327° |
| 2026-05-04 11:35 | 52.33989 | 4.43918 | 11596 ft | 322 kts | 329° |
| 2026-05-04 11:35 | 52.36108 | 4.42413 | 12033 ft | 340 kts | 341° |
| 2026-05-04 11:36 | 52.38437 | 4.41516 | 12713 ft | 348 kts | 349° |
| 2026-05-04 11:36 | 52.40853 | 4.41026 | 13473 ft | 353 kts | 353° |
| 2026-05-04 11:36 | 52.43350 | 4.40693 | 14212 ft | 358 kts | 354° |
| 2026-05-04 11:36 | 52.45856 | 4.40374 | 14753 ft | 369 kts | 353° |
| 2026-05-04 11:37 | 52.48418 | 4.40024 | 15270 ft | 378 kts | 353° |
| 2026-05-04 11:37 | 52.51051 | 4.39644 | 16042 ft | 380 kts | 353° |
| 2026-05-04 11:37 | 52.53672 | 4.39252 | 16742 ft | 384 kts | 352° |
| 2026-05-04 11:37 | 52.56369 | 4.38839 | 17413 ft | 387 kts | 352° |
| 2026-05-04 11:38 | 52.59035 | 4.38424 | 18122 ft | 389 kts | 352° |
| 2026-05-04 11:38 | 52.61743 | 4.37998 | 18742 ft | 394 kts | 351° |
| 2026-05-04 11:38 | 52.64507 | 4.37560 | 19361 ft | 398 kts | 351° |
| 2026-05-04 11:38 | 52.67242 | 4.37125 | 19977 ft | 401 kts | 351° |
| 2026-05-04 11:39 | 52.70020 | 4.36624 | 20578 ft | 402 kts | 345° |
| 2026-05-04 11:39 | 52.72630 | 4.35162 | 21194 ft | 394 kts | 328° |
| 2026-05-04 11:40 | 52.82141 | 4.14292 | 24657 ft | 387 kts | 297° |
| 2026-05-04 11:41 | 52.83521 | 4.10375 | 25196 ft | 388 kts | 296° |
| 2026-05-04 11:41 | 52.84856 | 4.06491 | 25630 ft | 391 kts | 296° |
| 2026-05-04 11:41 | 52.86175 | 4.02602 | 26063 ft | 393 kts | 296° |
| 2026-05-04 11:41 | 52.87510 | 3.98634 | 26492 ft | 395 kts | 295° |
| 2026-05-04 11:42 | 52.88874 | 3.94553 | 26898 ft | 399 kts | 295° |
| 2026-05-04 11:42 | 52.90198 | 3.90576 | 27293 ft | 401 kts | 295° |
| 2026-05-04 11:42 | 52.91540 | 3.86531 | 27701 ft | 402 kts | 295° |
| 2026-05-04 11:42 | 52.92880 | 3.82485 | 28127 ft | 403 kts | 295° |
| 2026-05-04 11:43 | 52.94231 | 3.78399 | 28466 ft | 406 kts | 295° |
| 2026-05-04 11:43 | 52.95581 | 3.74316 | 28995 ft | 403 kts | 295° |
| 2026-05-04 11:43 | 52.96943 | 3.70194 | 29491 ft | 402 kts | 295° |
| 2026-05-04 11:43 | 52.98270 | 3.66187 | 29959 ft | 400 kts | 295° |
| 2026-05-04 11:44 | 52.99674 | 3.62145 | 30413 ft | 403 kts | 300° |
| 2026-05-04 11:44 | 53.01556 | 3.58653 | 30504 ft | 420 kts | 314° |
| 2026-05-04 11:44 | 53.04028 | 3.55955 | 30906 ft | 430 kts | 326° |
| 2026-05-04 11:44 | 53.06756 | 3.53885 | 31386 ft | 431 kts | 330° |
| 2026-05-04 11:45 | 53.09516 | 3.51962 | 31775 ft | 433 kts | 332° |
| 2026-05-04 11:45 | 53.12353 | 3.50232 | 31996 ft | 437 kts | 335° |
| 2026-05-04 11:45 | 53.15225 | 3.48575 | 32020 ft | 437 kts | 335° |
| 2026-05-04 11:46 | 53.20967 | 3.45184 | 32014 ft | 428 kts | 330° |
| 2026-05-04 11:46 | 53.23458 | 3.42752 | 32021 ft | 419 kts | 317° |
| 2026-05-04 11:46 | 53.25577 | 3.39407 | 32026 ft | 412 kts | 306° |
| 2026-05-04 11:47 | 53.29027 | 3.31909 | 32023 ft | 409 kts | 302° |
| 2026-05-04 11:47 | 53.32234 | 3.24034 | 32022 ft | 409 kts | 298° |
| 2026-05-04 11:48 | 53.35307 | 3.16018 | 32022 ft | 409 kts | 298° |
| 2026-05-04 11:48 | 53.38343 | 3.08046 | 32023 ft | 407 kts | 298° |
| 2026-05-04 11:49 | 53.41393 | 3.00028 | 32018 ft | 412 kts | 298° |
| 2026-05-04 11:49 | 53.44501 | 2.91823 | 32013 ft | 416 kts | 297° |
| 2026-05-04 11:50 | 53.47569 | 2.83656 | 32008 ft | 413 kts | 297° |
| 2026-05-04 11:50 | 53.49430 | 2.78682 | 32004 ft | 411 kts | 297° |
| 2026-05-04 11:51 | 53.52427 | 2.70644 | 31996 ft | 407 kts | 297° |
| 2026-05-04 11:51 | 53.55398 | 2.62647 | 31997 ft | 408 kts | 297° |
| 2026-05-04 11:52 | 53.58422 | 2.54472 | 31995 ft | 407 kts | 297° |
| 2026-05-04 11:52 | 53.61453 | 2.46362 | 31994 ft | 406 kts | 297° |
| 2026-05-04 11:53 | 53.64463 | 2.38339 | 31994 ft | 406 kts | 297° |
| 2026-05-04 11:53 | 53.67474 | 2.30251 | 32001 ft | 412 kts | 300° |
| 2026-05-04 11:55 | 53.80085 | 1.95923 | 32014 ft | 434 kts | 300° |
| 2026-05-04 11:56 | 53.83258 | 1.87197 | 32019 ft | 437 kts | 300° |
| 2026-05-04 11:56 | 53.86474 | 1.78319 | 32030 ft | 443 kts | 300° |
| 2026-05-04 11:57 | 53.89682 | 1.69430 | 32027 ft | 441 kts | 300° |
| 2026-05-04 11:57 | 53.92863 | 1.60582 | 32029 ft | 440 kts | 300° |
| 2026-05-04 11:58 | 53.96050 | 1.51687 | 32033 ft | 443 kts | 300° |
| 2026-05-04 11:58 | 53.99236 | 1.42761 | 32034 ft | 442 kts | 300° |
| 2026-05-04 11:59 | 54.02417 | 1.33818 | 32039 ft | 443 kts | 300° |
| 2026-05-04 11:59 | 54.05598 | 1.24844 | 32039 ft | 443 kts | 300° |
| 2026-05-04 12:00 | 54.08775 | 1.15847 | 32037 ft | 442 kts | 300° |
| 2026-05-04 12:00 | 54.11951 | 1.06818 | 32047 ft | 446 kts | 300° |
| 2026-05-04 12:01 | 54.15141 | 0.97719 | 32049 ft | 445 kts | 300° |
| 2026-05-04 12:02 | 54.26221 | 0.65847 | 32053 ft | 446 kts | 300° |
| 2026-05-04 12:03 | 54.29406 | 0.56608 | 32053 ft | 446 kts | 300° |
| 2026-05-04 12:03 | 54.32548 | 0.47459 | 32053 ft | 446 kts | 300° |
| 2026-05-04 12:04 | 54.35694 | 0.38265 | 32053 ft | 447 kts | 300° |
| 2026-05-04 12:04 | 54.38294 | 0.30640 | 32053 ft | 446 kts | 300° |
| 2026-05-04 12:05 | 54.41423 | 0.21431 | 32053 ft | 446 kts | 300° |
| 2026-05-04 12:05 | 54.44541 | 0.12222 | 32053 ft | 447 kts | 299° |
| 2026-05-04 12:06 | 54.47650 | 0.03004 | 32053 ft | 446 kts | 299° |
| 2026-05-04 12:06 | 54.50770 | -0.06281 | 32067 ft | 445 kts | 299° |
| 2026-05-04 12:07 | 54.53801 | -0.15337 | 32071 ft | 425 kts | 298° |
| 2026-05-04 12:07 | 54.56702 | -0.24034 | 32072 ft | 418 kts | 301° |
| 2026-05-04 12:08 | 54.58919 | -0.30704 | 32072 ft | 427 kts | 302° |
| 2026-05-04 12:08 | 54.61888 | -0.39663 | 32073 ft | 434 kts | 302° |
| 2026-05-04 12:09 | 54.64875 | -0.48709 | 32074 ft | 432 kts | 302° |
| 2026-05-04 12:09 | 54.67848 | -0.57747 | 32072 ft | 432 kts | 302° |
| 2026-05-04 12:10 | 54.70814 | -0.66798 | 32072 ft | 431 kts | 302° |
| 2026-05-04 12:10 | 54.73751 | -0.75792 | 32067 ft | 434 kts | 302° |
| 2026-05-04 12:11 | 54.76732 | -0.84957 | 32068 ft | 436 kts | 302° |
| 2026-05-04 12:11 | 54.79656 | -0.93979 | 32070 ft | 430 kts | 302° |
| 2026-05-04 12:12 | 54.82610 | -1.03129 | 32066 ft | 441 kts | 302° |
| 2026-05-04 12:12 | 54.85623 | -1.12498 | 32064 ft | 444 kts | 302° |
| 2026-05-04 12:14 | 54.97434 | -1.49477 | 32053 ft | 436 kts | 302° |
| 2026-05-04 12:15 | 55.00349 | -1.58772 | 32055 ft | 433 kts | 301° |
| 2026-05-04 12:15 | 55.03221 | -1.67941 | 32051 ft | 436 kts | 302° |
| 2026-05-04 12:16 | 55.06064 | -1.77522 | 32048 ft | 449 kts | 299° |
| 2026-05-04 12:16 | 55.08868 | -1.87414 | 32049 ft | 461 kts | 298° |
| 2026-05-04 12:17 | 55.11675 | -1.97347 | 32042 ft | 450 kts | 299° |
| 2026-05-04 12:17 | 55.14455 | -2.07211 | 32044 ft | 456 kts | 298° |
| 2026-05-04 12:18 | 55.17272 | -2.17247 | 32039 ft | 456 kts | 298° |
| 2026-05-04 12:18 | 55.20035 | -2.27040 | 32033 ft | 450 kts | 299° |
| 2026-05-04 12:19 | 55.22835 | -2.36853 | 32028 ft | 449 kts | 299° |
| 2026-05-04 12:19 | 55.24200 | -2.41681 | 32027 ft | 438 kts | 299° |
| 2026-05-04 12:19 | 55.25554 | -2.46493 | 32027 ft | 436 kts | 299° |
| 2026-05-04 12:20 | 55.28230 | -2.56061 | 32027 ft | 431 kts | 298° |
| 2026-05-04 12:20 | 55.30859 | -2.65514 | 32026 ft | 432 kts | 298° |
| 2026-05-04 12:21 | 55.33495 | -2.75044 | 32026 ft | 432 kts | 298° |
| 2026-05-04 12:21 | 55.36117 | -2.84554 | 32024 ft | 434 kts | 299° |
| 2026-05-04 12:22 | 55.38816 | -2.94238 | 32023 ft | 450 kts | 298° |
| 2026-05-04 12:22 | 55.41557 | -3.04282 | 32024 ft | 460 kts | 297° |
| 2026-05-04 12:23 | 55.44305 | -3.14456 | 32024 ft | 463 kts | 295° |
| 2026-05-04 12:23 | 55.47079 | -3.24778 | 32023 ft | 462 kts | 296° |
| 2026-05-04 12:24 | 55.48702 | -3.29601 | 32016 ft | 458 kts | 310° |
| 2026-05-04 12:24 | 55.50963 | -3.33517 | 32022 ft | 459 kts | 324° |
| 2026-05-04 12:24 | 55.53745 | -3.36371 | 31771 ft | 466 kts | 336° |
| 2026-05-04 12:24 | 55.56753 | -3.38320 | 31366 ft | 461 kts | 341° |
| 2026-05-04 12:25 | 55.59813 | -3.39922 | 30849 ft | 456 kts | 342° |
| 2026-05-04 12:25 | 55.62857 | -3.41372 | 30341 ft | 452 kts | 342° |
| 2026-05-04 12:25 | 55.65877 | -3.42801 | 29847 ft | 445 kts | 342° |
| 2026-05-04 12:25 | 55.68842 | -3.44203 | 29362 ft | 439 kts | 342° |
| 2026-05-04 12:26 | 55.71503 | -3.45464 | 28904 ft | 436 kts | 342° |
| 2026-05-04 12:26 | 55.74446 | -3.46860 | 28369 ft | 434 kts | 342° |
| 2026-05-04 12:26 | 55.77350 | -3.48239 | 27885 ft | 430 kts | 341° |
| 2026-05-04 12:26 | 55.80216 | -3.49602 | 27415 ft | 425 kts | 342° |
| 2026-05-04 12:27 | 55.83041 | -3.50946 | 26972 ft | 413 kts | 343° |
| 2026-05-04 12:27 | 55.85760 | -3.52226 | 26536 ft | 399 kts | 344° |
| 2026-05-04 12:27 | 55.88408 | -3.53477 | 26081 ft | 387 kts | 344° |
| 2026-05-04 12:27 | 55.91001 | -3.54694 | 25637 ft | 376 kts | 344° |
| 2026-05-04 12:28 | 55.93455 | -3.55855 | 25216 ft | 365 kts | 343° |
| 2026-05-04 12:28 | 55.95908 | -3.57022 | 24794 ft | 356 kts | 343° |
| 2026-05-04 12:28 | 55.98272 | -3.58151 | 24388 ft | 351 kts | 343° |
| 2026-05-04 12:28 | 56.00620 | -3.59277 | 23979 ft | 349 kts | 343° |
| 2026-05-04 12:29 | 56.02981 | -3.60412 | 23568 ft | 347 kts | 343° |
| 2026-05-04 12:29 | 56.05299 | -3.61529 | 23164 ft | 344 kts | 343° |
| 2026-05-04 12:29 | 56.07591 | -3.62635 | 22764 ft | 342 kts | 343° |
| 2026-05-04 12:29 | 56.09894 | -3.63748 | 22361 ft | 340 kts | 342° |
| 2026-05-04 12:30 | 56.12166 | -3.64848 | 21961 ft | 339 kts | 342° |
| 2026-05-04 12:30 | 56.14432 | -3.65945 | 21555 ft | 337 kts | 342° |
| 2026-05-04 12:30 | 56.16699 | -3.66993 | 21139 ft | 337 kts | 347° |
| 2026-05-04 12:30 | 56.19053 | -3.67004 | 20727 ft | 342 kts | 6° |
| 2026-05-04 12:31 | 56.21318 | -3.65610 | 20268 ft | 349 kts | 22° |
| 2026-05-04 12:31 | 56.23424 | -3.63447 | 19837 ft | 351 kts | 27° |
| 2026-05-04 12:31 | 56.25489 | -3.61074 | 19416 ft | 352 kts | 30° |
| 2026-05-04 12:31 | 56.27487 | -3.58555 | 19002 ft | 352 kts | 31° |
| 2026-05-04 12:32 | 56.29475 | -3.55996 | 18590 ft | 351 kts | 31° |
| 2026-05-04 12:32 | 56.33449 | -3.50865 | 17775 ft | 349 kts | 31° |
| 2026-05-04 12:32 | 56.35392 | -3.48356 | 17379 ft | 348 kts | 31° |
| 2026-05-04 12:33 | 56.37377 | -3.45786 | 16974 ft | 346 kts | 31° |
| 2026-05-04 12:33 | 56.39325 | -3.43257 | 16577 ft | 345 kts | 31° |
| 2026-05-04 12:33 | 56.41268 | -3.40728 | 16180 ft | 344 kts | 31° |
| 2026-05-04 12:33 | 56.43201 | -3.38208 | 15786 ft | 343 kts | 31° |
| 2026-05-04 12:34 | 56.45141 | -3.35710 | 15392 ft | 341 kts | 30° |
| 2026-05-04 12:34 | 56.47099 | -3.33315 | 15002 ft | 340 kts | 29° |
| 2026-05-04 12:34 | 56.49059 | -3.30926 | 14610 ft | 339 kts | 30° |
| 2026-05-04 12:34 | 56.51001 | -3.28543 | 14222 ft | 337 kts | 30° |
| 2026-05-04 12:35 | 56.52932 | -3.26159 | 13835 ft | 336 kts | 30° |
| 2026-05-04 12:35 | 56.54856 | -3.23776 | 13449 ft | 335 kts | 30° |
| 2026-05-04 12:35 | 56.56771 | -3.21395 | 13066 ft | 334 kts | 30° |
| 2026-05-04 12:35 | 56.58713 | -3.18976 | 12670 ft | 333 kts | 30° |
| 2026-05-04 12:36 | 56.60589 | -3.16634 | 12288 ft | 332 kts | 30° |
| 2026-05-04 12:36 | 56.62509 | -3.14234 | 11904 ft | 331 kts | 30° |
| 2026-05-04 12:36 | 56.64394 | -3.11875 | 11530 ft | 329 kts | 30° |
| 2026-05-04 12:36 | 56.66278 | -3.09517 | 11156 ft | 328 kts | 31° |
| 2026-05-04 12:37 | 56.68142 | -3.07183 | 10881 ft | 323 kts | 31° |
| 2026-05-04 12:37 | 56.69950 | -3.04914 | 10692 ft | 309 kts | 30° |
| 2026-05-04 12:37 | 56.71680 | -3.02736 | 10520 ft | 296 kts | 30° |
| 2026-05-04 12:37 | 56.73337 | -3.00648 | 10357 ft | 284 kts | 30° |
| 2026-05-04 12:38 | 56.74928 | -2.98639 | 10203 ft | 275 kts | 30° |
| 2026-05-04 12:38 | 56.76488 | -2.96672 | 10038 ft | 274 kts | 30° |
| 2026-05-04 12:38 | 56.78079 | -2.94681 | 9741 ft | 280 kts | 30° |
| 2026-05-04 12:38 | 56.79673 | -2.92679 | 9462 ft | 278 kts | 30° |
| 2026-05-04 12:39 | 56.81287 | -2.90644 | 9115 ft | 280 kts | 31° |
| 2026-05-04 12:39 | 56.82887 | -2.88622 | 8832 ft | 279 kts | 31° |
| 2026-05-04 12:39 | 56.84470 | -2.86618 | 8554 ft | 277 kts | 31° |
| 2026-05-04 12:39 | 56.86051 | -2.84615 | 8280 ft | 276 kts | 31° |
| 2026-05-04 12:40 | 56.87622 | -2.82624 | 8006 ft | 274 kts | 31° |
| 2026-05-04 12:40 | 56.89174 | -2.80653 | 7762 ft | 272 kts | 31° |
| 2026-05-04 12:40 | 56.90723 | -2.78695 | 7519 ft | 269 kts | 31° |
| 2026-05-04 12:40 | 56.92252 | -2.76765 | 7215 ft | 266 kts | 31° |
| 2026-05-04 12:41 | 56.93773 | -2.74843 | 6846 ft | 267 kts | 31° |
| 2026-05-04 12:41 | 56.95181 | -2.72624 | 6527 ft | 270 kts | 48° |
| 2026-05-04 12:41 | 56.96150 | -2.69725 | 6225 ft | 267 kts | 61° |
| 2026-05-04 12:41 | 56.96896 | -2.66696 | 6099 ft | 254 kts | 64° |
| 2026-05-04 12:42 | 56.97386 | -2.63672 | 5974 ft | 244 kts | 78° |
| 2026-05-04 12:42 | 56.97559 | -2.60627 | 5748 ft | 238 kts | 83° |
| 2026-05-04 12:42 | 56.97680 | -2.57592 | 5432 ft | 235 kts | 84° |
| 2026-05-04 12:42 | 56.97800 | -2.54625 | 5104 ft | 233 kts | 84° |
| 2026-05-04 12:43 | 56.97906 | -2.51941 | 4798 ft | 231 kts | 84° |
| 2026-05-04 12:43 | 56.98026 | -2.48979 | 4457 ft | 229 kts | 84° |
| 2026-05-04 12:43 | 56.98150 | -2.46092 | 4223 ft | 223 kts | 84° |
| 2026-05-04 12:43 | 56.98278 | -2.43353 | 4110 ft | 209 kts | 81° |
| 2026-05-04 12:44 | 56.98498 | -2.40797 | 3944 ft | 198 kts | 78° |
| 2026-05-04 12:44 | 56.98744 | -2.38348 | 3656 ft | 194 kts | 75° |
| 2026-05-04 12:44 | 56.99128 | -2.36016 | 3372 ft | 190 kts | 68° |
| 2026-05-04 12:44 | 56.99618 | -2.33823 | 3148 ft | 182 kts | 59° |
| 2026-05-04 12:45 | 57.00289 | -2.31892 | 2913 ft | 178 kts | 53° |
| 2026-05-04 12:45 | 57.01014 | -2.30067 | 2673 ft | 175 kts | 50° |
| 2026-05-04 12:45 | 57.01754 | -2.28351 | 2488 ft | 170 kts | 50° |
| 2026-05-04 12:45 | 57.02243 | -2.27230 | 2473 ft | 169 kts | 50° |
| 2026-05-04 12:46 | 57.02967 | -2.25562 | 2475 ft | 167 kts | 50° |
| 2026-05-04 12:46 | 57.03697 | -2.23885 | 2487 ft | 168 kts | 50° |
| 2026-05-04 12:46 | 57.04428 | -2.22202 | 2500 ft | 170 kts | 50° |
| 2026-05-04 12:46 | 57.05164 | -2.20510 | 2495 ft | 167 kts | 50° |
| 2026-05-04 12:47 | 57.05876 | -2.18869 | 2482 ft | 163 kts | 50° |
| 2026-05-04 12:47 | 57.06572 | -2.17260 | 2510 ft | 161 kts | 50° |
| 2026-05-04 12:47 | 57.07262 | -2.15664 | 2493 ft | 158 kts | 50° |
| 2026-05-04 12:47 | 57.07942 | -2.14104 | 2546 ft | 156 kts | 50° |
| 2026-05-04 12:48 | 57.08418 | -2.13090 | 2504 ft | 155 kts | 41° |
| 2026-05-04 12:48 | 57.09398 | -2.12501 | 2289 ft | 147 kts | 359° |
| 2026-05-04 12:48 | 57.10392 | -2.12825 | 2130 ft | 146 kts | 344° |
| 2026-05-04 12:48 | 57.11368 | -2.13352 | 1924 ft | 146 kts | 341° |
| 2026-05-04 12:49 | 57.12314 | -2.13989 | 1730 ft | 144 kts | 338° |
| 2026-05-04 12:49 | 57.13240 | -2.14662 | 1539 ft | 141 kts | 338° |
| 2026-05-04 12:49 | 57.14141 | -2.15321 | 1354 ft | 137 kts | 338° |
| 2026-05-04 12:49 | 57.15024 | -2.15970 | 1163 ft | 134 kts | 338° |
| 2026-05-04 12:50 | 57.15876 | -2.16596 | 984 ft | 131 kts | 338° |
| 2026-05-04 12:50 | 57.16716 | -2.17214 | 814 ft | 130 kts | 335° |
| 2026-05-04 12:50 | 57.17565 | -2.17840 | 643 ft | 134 kts | 334° |
| 2026-05-04 12:50 | 57.18431 | -2.18492 | 462 ft | 135 kts | 334° |
| 2026-05-04 12:51 | 57.19308 | -2.19121 | 271 ft | 135 kts | 335° |
| 2026-05-04 12:51 | 57.20141 | -2.19710 | 223 ft | 105 kts | 333° |
| 2026-05-04 12:51 | 57.20468 | -2.19994 | 223 ft | 11 kts | 323° |
| 2026-05-04 12:51 | 57.20464 | -2.20068 | 223 ft | 4 kts | 227° |
| 2026-05-04 12:52 | 57.20431 | -2.20128 | 223 ft | 10 kts | 225° |
| 2026-05-04 12:52 | 57.20362 | -2.20261 | 223 ft | 18 kts | 229° |
| 2026-05-04 12:52 | 57.20296 | -2.20404 | 223 ft | 8 kts | 184° |
| 2026-05-04 12:52 | 57.20271 | -2.20389 | 223 ft | 0 kts | 140° |
| 2026-05-04 12:58 | 52.30703 | 4.77342 | 4 ft | 0 kts | 1° |